Willow Spring, NC

12:41 PM EST on January 26, 2015 (GMT -0500)
Kendall Hills | Change Station
CLOSE
Current Station
Personal Weather Station
Location: Willow Spring, NC
Elevation: 315 ft
Nearby Weather Stations

Elev 315 ft 35.58 °N, 78.69 °W | Updated 7 seconds ago

Overcast
Overcast
47.4 °F
Feels Like 47 °F
N
0.0
Wind Variable Wind from North
Gusts 2.0 mph

Today
High -- | Low -- °F
--% Chance of Precip.
Yesterday
High -- | Low -- °F
Precip. -- in
7:18 AM 5:36 PM
Waxing Crescent, 45% visible
Pressure 29.66 in
Visibility 10.0 miles
Clouds Overcast 900 ft
Windchill 47 °F
Dew Point 44 °F
Humidity 87%
Rainfall 0.05 in
Snow Depth Not available.
UV 1 out of 12
Pollen .40 out of 12
Air Quality Not available.
Flu Activity Not available.
METAR KHRJ 261655Z AUTO 24003KT 10SM OVC009 08/07 A2966 RMK AO2 T00800070

More Conditions Fewer Conditions

Pressure 29.66 in
Visibility 10.0 miles
Clouds Overcast 900 ft
Windchill 47 °F
Dew Point 44 °F
Humidity 87%
Rainfall 0.05 in
Snow Depth Not available.
UV 1 out of 12
Pollen .40 out of 12
Air Quality Not available.
Flu Activity Not available.
METAR KHRJ 261655Z AUTO 24003KT 10SM OVC009 08/07 A2966 RMK AO2 T00800070

More Conditions Fewer Conditions

10-Day Weather Forecast

Almanac

Astronomy

Jan. 26, 2015 Rise Set
Actual Time
Civil Twilight
Nautical Twilight
Astronomical Twilight
Moon
Length of Visible Light
Length of Day
Tomorrow will be .
, % of the Moon is Illuminated

Today's Extremes

State Highs State Lows

Community

WunderPhotos

Upload Photos

1,790,301 photos uploaded!

WunderBlogs® & News

Nearby

Air Quality

  Air Quality AQ Index Pollutant
Not available.

Snow Depth

Station Depth Elevation

Earthquake Activity

City Distance Mag. Time & Date
Minimum magnitude displayed is 2.5.

Coastal Water Temperatures

Place Temperature

Nearby Weather Stations